Time;durP1;ratioP1;P1;durP2;ratioP2;P2;SDS_P1;SDS_P2;PMS_P1;PMS_P2;Temp;Humidity;BMP_temperature;BMP_pressure;BME280_temperature;BME280_humidity;BME280_pressure;Samples;Min_cycle;Max_cycle;Signal;HPM_P1;HPM_P2
2022/05/05 00:02:14;;;;;;;;;;;13.20;59.60;;;;;;5088223;27;88531;-47
2022/05/05 00:04:40;;;;;;;;;;;13.20;59.60;;;;;;5087410;27;88237;-47
2022/05/05 00:07:05;;;;;;;;;;;13.20;59.60;;;;;;5088662;27;88932;-51
2022/05/05 00:09:31;;;;;;;;;;;13.20;59.60;;;;;;5088855;27;86891;-48
2022/05/05 00:14:42;;;;;;;;;;;13.20;59.60;;;;;;5088893;27;86933;-50
2022/05/05 00:17:09;;;;;;;;;;;13.20;59.70;;;;;;5088917;27;86843;-47
2022/05/05 00:19:36;;;;;;;;;;;13.20;59.60;;;;;;5089256;27;86972;-50
2022/05/05 00:22:02;;;;;;;;;;;13.20;59.60;;;;;;5091965;27;88010;-47
2022/05/05 00:24:28;;;;;;;;;;;13.10;59.60;;;;;;5088848;27;88830;-50
2022/05/05 00:26:54;;;;;;;;;;;13.10;59.60;;;;;;5088490;27;89016;-47
2022/05/05 00:29:20;;;;;;;;;;;13.10;59.70;;;;;;5088140;27;87884;-47
2022/05/05 00:31:46;;;;;;;;;;;13.10;59.60;;;;;;5088973;27;87833;-47
2022/05/05 00:34:12;;;;;;;;;;;13.10;59.60;;;;;;5088513;27;86813;-47
2022/05/05 00:36:38;;;;;;;;;;;13.10;59.60;;;;;;5088944;27;86821;-49
2022/05/05 00:39:04;;;;;;;;;;;13.00;59.40;;;;;;5088734;27;87242;-48
2022/05/05 00:41:36;;;;;;;;;;;13.10;59.50;;;;;;5088598;27;86838;-46
2022/05/05 00:44:03;;;;;;;;;;;13.00;59.50;;;;;;5091576;27;86861;-50
2022/05/05 00:46:29;;;;;;;;;;;13.00;59.50;;;;;;5088694;27;87232;-48
2022/05/05 00:48:55;;;;;;;;;;;13.00;59.50;;;;;;5088525;27;86823;-47
2022/05/05 00:51:21;;;;;;;;;;;13.00;59.60;;;;;;5088653;27;86833;-50
2022/05/05 00:53:47;;;;;;;;;;;12.90;59.60;;;;;;5087321;27;88721;-47
2022/05/05 00:56:14;;;;;;;;;;;13.00;59.60;;;;;;5088697;27;86808;-47
2022/05/05 00:58:43;;;;;;;;;;;13.00;59.70;;;;;;5088335;27;87142;-49
2022/05/05 01:01:09;;;;;;;;;;;12.90;59.60;;;;;;5088108;27;87555;-50
2022/05/05 01:03:36;;;;;;;;;;;12.90;59.60;;;;;;5088020;27;86787;-47
2022/05/05 01:06:02;;;;;;;;;;;12.90;59.60;;;;;;5090818;27;87176;-51
2022/05/05 01:08:28;;;;;;;;;;;12.90;59.70;;;;;;5088278;27;86790;-49
2022/05/05 01:10:54;;;;;;;;;;;12.90;59.60;;;;;;5088521;27;87891;-47
2022/05/05 01:13:20;;;;;;;;;;;12.90;59.60;;;;;;5087650;27;88833;-47
2022/05/05 01:15:46;;;;;;;;;;;12.90;59.60;;;;;;5087632;27;86886;-49
2022/05/05 01:18:12;;;;;;;;;;;12.80;59.50;;;;;;5087328;27;88125;-50
2022/05/05 01:20:44;;;;;;;;;;;12.80;59.60;;;;;;5087845;27;87392;-49
2022/05/05 01:23:11;;;;;;;;;;;12.80;59.60;;;;;;5087954;27;86832;-48
2022/05/05 01:28:20;;;;;;;;;;;12.80;59.60;;;;;;5088281;27;86947;-48
2022/05/05 01:30:47;;;;;;;;;;;12.80;59.60;;;;;;5087850;27;87688;-49
2022/05/05 01:33:14;;;;;;;;;;;12.80;59.60;;;;;;5087395;27;88578;-48
2022/05/05 01:35:40;;;;;;;;;;;12.70;59.60;;;;;;5088172;27;86149;-48
2022/05/05 01:38:07;;;;;;;;;;;12.70;59.60;;;;;;5087889;27;87071;-48
2022/05/05 01:40:33;;;;;;;;;;;12.70;59.60;;;;;;5087281;27;87867;-50
2022/05/05 01:42:58;;;;;;;;;;;12.70;59.60;;;;;;5086397;27;87940;-51
2022/05/05 01:45:24;;;;;;;;;;;12.70;59.60;;;;;;5087540;27;87799;-50
2022/05/05 01:47:50;;;;;;;;;;;12.70;59.60;;;;;;5090461;27;87184;-47
2022/05/05 01:50:15;;;;;;;;;;;12.60;59.70;;;;;;5087463;27;87050;-49
2022/05/05 01:52:41;;;;;;;;;;;12.60;59.60;;;;;;5087306;27;87388;-47
2022/05/05 01:55:07;;;;;;;;;;;12.60;59.60;;;;;;5087489;27;87160;-48
2022/05/05 01:57:33;;;;;;;;;;;12.60;59.50;;;;;;5087441;27;87064;-48
2022/05/05 02:00:00;;;;;;;;;;;12.60;59.50;;;;;;5087470;27;87517;-52
2022/05/05 02:02:26;;;;;;;;;;;12.60;59.60;;;;;;5087151;27;86835;-48
2022/05/05 02:04:52;;;;;;;;;;;12.60;59.60;;;;;;5087342;27;86986;-52
2022/05/05 02:07:18;;;;;;;;;;;12.50;59.60;;;;;;5086215;27;89253;-47
2022/05/05 02:09:43;;;;;;;;;;;12.50;59.60;;;;;;5089293;27;87050;-51
2022/05/05 02:12:09;;;;;;;;;;;12.50;59.50;;;;;;5086035;27;87483;-50
2022/05/05 02:14:35;;;;;;;;;;;12.50;59.60;;;;;;5087181;27;86800;-47
2022/05/05 02:17:01;;;;;;;;;;;12.50;59.60;;;;;;5086421;27;86823;-50
2022/05/05 02:19:26;;;;;;;;;;;12.40;59.60;;;;;;5086665;27;87747;-49
2022/05/05 02:21:52;;;;;;;;;;;12.50;59.60;;;;;;5087158;27;86820;-48
2022/05/05 02:24:18;;;;;;;;;;;12.40;59.70;;;;;;5087655;27;88125;-49
2022/05/05 02:26:43;;;;;;;;;;;12.40;59.60;;;;;;5087267;27;88445;-48
2022/05/05 02:29:09;;;;;;;;;;;12.40;59.60;;;;;;5090990;27;86833;-50
2022/05/05 02:31:34;;;;;;;;;;;12.40;59.70;;;;;;5092598;27;88003;-52
2022/05/05 02:34:00;;;;;;;;;;;12.30;59.80;;;;;;5090623;27;86843;-48
2022/05/05 02:39:21;;;;;;;;;;;12.30;60.30;;;;;;5015765;27;87135;-47
2022/05/05 02:41:46;;;;;;;;;;;12.30;59.80;;;;;;5090668;27;86834;-49
2022/05/05 02:44:12;;;;;;;;;;;12.30;59.80;;;;;;5090534;27;87071;-47
2022/05/05 02:46:38;;;;;;;;;;;12.30;59.80;;;;;;5090145;27;87919;-51
2022/05/05 02:49:03;;;;;;;;;;;12.20;59.70;;;;;;5091073;27;86127;-47
2022/05/05 02:51:29;;;;;;;;;;;12.30;59.80;;;;;;5090332;27;87305;-49
2022/05/05 02:56:40;;;;;;;;;;;12.20;59.70;;;;;;5086910;27;87791;-50
2022/05/05 02:59:05;;;;;;;;;;;12.20;59.80;;;;;;5090125;27;86936;-51
2022/05/05 03:01:31;;;;;;;;;;;12.20;59.70;;;;;;5089958;27;87029;-47
2022/05/05 03:03:57;;;;;;;;;;;12.20;59.70;;;;;;5090436;27;86936;-49
2022/05/05 03:06:22;;;;;;;;;;;12.20;60.40;;;;;;5090039;27;86907;-47
2022/05/05 03:08:49;;;;;;;;;;;12.20;59.80;;;;;;5090090;27;87036;-49
2022/05/05 03:11:14;;;;;;;;;;;12.10;59.80;;;;;;5090033;27;88082;-48
2022/05/05 03:13:40;;;;;;;;;;;12.10;59.80;;;;;;5090159;27;87813;-49
2022/05/05 03:16:05;;;;;;;;;;;12.10;59.80;;;;;;5093224;27;87351;-47
2022/05/05 03:18:31;;;;;;;;;;;12.10;59.80;;;;;;5089587;27;88776;-50
2022/05/05 03:20:57;;;;;;;;;;;12.00;59.80;;;;;;5089276;27;87821;-51
2022/05/05 03:23:22;;;;;;;;;;;12.10;59.80;;;;;;5089304;27;88146;-51
2022/05/05 03:25:48;;;;;;;;;;;12.00;59.80;;;;;;5089473;27;88722;-48
2022/05/05 03:28:14;;;;;;;;;;;12.00;59.70;;;;;;5089776;27;87092;-47
2022/05/05 03:30:40;;;;;;;;;;;12.00;59.80;;;;;;5089815;27;87918;-48
2022/05/05 03:33:06;;;;;;;;;;;12.00;59.80;;;;;;5089275;27;87694;-51
2022/05/05 03:35:33;;;;;;;;;;;12.00;59.60;;;;;;5092831;27;86876;-48
2022/05/05 03:37:59;;;;;;;;;;;12.00;59.70;;;;;;5089749;27;87845;-47
2022/05/05 03:40:25;;;;;;;;;;;12.00;59.80;;;;;;5089924;27;87192;-46
2022/05/05 03:42:51;;;;;;;;;;;12.00;59.80;;;;;;5089599;27;87977;-47
2022/05/05 03:45:17;;;;;;;;;;;12.00;59.80;;;;;;5088410;27;88914;-47
2022/05/05 03:47:42;;;;;;;;;;;11.90;59.70;;;;;;5089436;27;86800;-47
2022/05/05 03:50:08;;;;;;;;;;;11.90;59.60;;;;;;5089403;27;88117;-48
2022/05/05 03:52:34;;;;;;;;;;;11.90;59.70;;;;;;5089022;27;88630;-48
2022/05/05 03:55:00;;;;;;;;;;;11.90;59.60;;;;;;5089491;27;87004;-46
2022/05/05 03:57:44;;;;;;;;;;;11.90;59.60;;;;;;5091886;27;88024;-48
2022/05/05 04:00:10;;;;;;;;;;;11.90;59.70;;;;;;5089360;27;87211;-46
2022/05/05 04:02:35;;;;;;;;;;;11.90;59.60;;;;;;5089395;27;88072;-48
2022/05/05 04:05:01;;;;;;;;;;;11.90;59.60;;;;;;5088737;27;88731;-48
2022/05/05 04:07:27;;;;;;;;;;;11.90;59.60;;;;;;5089152;27;86839;-47
2022/05/05 04:09:54;;;;;;;;;;;11.80;59.60;;;;;;5088735;27;88240;-47
2022/05/05 04:12:20;;;;;;;;;;;11.80;59.70;;;;;;5088870;27;88601;-47
2022/05/05 04:14:47;;;;;;;;;;;11.80;59.70;;;;;;5089167;27;86915;-48
2022/05/05 04:17:12;;;;;;;;;;;11.80;59.70;;;;;;5088953;27;87933;-47
2022/05/05 04:19:39;;;;;;;;;;;11.80;59.60;;;;;;5091737;27;87256;-48
2022/05/05 04:22:05;;;;;;;;;;;11.80;59.70;;;;;;5089194;27;88029;-47
2022/05/05 04:24:32;;;;;;;;;;;11.80;59.70;;;;;;5088553;27;88765;-48
2022/05/05 04:26:57;;;;;;;;;;;11.70;59.60;;;;;;5089675;27;85988;-48
2022/05/05 04:29:23;;;;;;;;;;;11.70;59.70;;;;;;5088987;27;87168;-47
2022/05/05 04:31:49;;;;;;;;;;;11.70;59.70;;;;;;5088753;27;87374;-47
2022/05/05 04:34:15;;;;;;;;;;;11.70;59.70;;;;;;5088162;27;87819;-47
2022/05/05 04:36:41;;;;;;;;;;;11.70;59.70;;;;;;5088858;27;89386;-48
2022/05/05 04:39:06;;;;;;;;;;;11.70;59.70;;;;;;5088227;27;88230;-47
2022/05/05 04:41:33;;;;;;;;;;;11.70;59.70;;;;;;5091653;27;87069;-47
2022/05/05 04:43:59;;;;;;;;;;;11.70;59.70;;;;;;5088318;27;87855;-47
2022/05/05 04:46:24;;;;;;;;;;;11.70;59.80;;;;;;5088880;27;86783;-47
2022/05/05 04:48:50;;;;;;;;;;;11.70;59.80;;;;;;5088631;27;88035;-47
2022/05/05 04:51:16;;;;;;;;;;;11.60;59.80;;;;;;5088247;27;86526;-47
2022/05/05 04:53:41;;;;;;;;;;;11.60;59.70;;;;;;5088392;27;86850;-48
2022/05/05 04:56:10;;;;;;;;;;;11.60;59.70;;;;;;5088422;27;86979;-47
2022/05/05 04:58:36;;;;;;;;;;;11.70;59.80;;;;;;5087382;27;89507;-48
2022/05/05 05:01:02;;;;;;;;;;;11.60;59.80;;;;;;5088258;27;86886;-48
2022/05/05 05:03:35;;;;;;;;;;;11.60;59.90;;;;;;5090626;27;88109;-47
2022/05/05 05:06:08;;;;;;;;;;;11.70;59.90;;;;;;5088304;27;87044;-47
2022/05/05 05:08:34;;;;;;;;;;;11.60;59.80;;;;;;5088262;27;87768;-47
2022/05/05 05:10:59;;;;;;;;;;;11.60;59.80;;;;;;5087829;27;87684;-47
2022/05/05 05:13:25;;;;;;;;;;;11.60;59.80;;;;;;5088206;27;86835;-48
2022/05/05 05:15:51;;;;;;;;;;;11.60;59.80;;;;;;5088769;27;86748;-47
2022/05/05 05:18:17;;;;;;;;;;;11.60;59.90;;;;;;5088055;27;87628;-47
2022/05/05 05:20:42;;;;;;;;;;;11.70;59.80;;;;;;5087983;27;86916;-47
2022/05/05 05:23:09;;;;;;;;;;;11.70;59.70;;;;;;5087474;27;88279;-48
2022/05/05 05:25:35;;;;;;;;;;;11.70;59.80;;;;;;5090055;27;86807;-49
2022/05/05 05:28:01;;;;;;;;;;;11.70;59.80;;;;;;5088039;27;87922;-47
2022/05/05 05:30:27;;;;;;;;;;;11.70;59.90;;;;;;5087551;27;88846;-47
2022/05/05 05:32:52;;;;;;;;;;;11.70;59.80;;;;;;5088232;27;87192;-47
2022/05/05 05:35:18;;;;;;;;;;;11.60;59.80;;;;;;5087744;27;87984;-47
2022/05/05 05:37:44;;;;;;;;;;;11.70;59.90;;;;;;5087645;27;87841;-48
2022/05/05 05:40:10;;;;;;;;;;;11.60;59.90;;;;;;5088593;27;86099;-49
2022/05/05 05:42:37;;;;;;;;;;;11.60;60.00;;;;;;5087750;27;87207;-47
2022/05/05 05:45:03;;;;;;;;;;;11.60;60.10;;;;;;5090148;27;89188;-47
2022/05/05 05:47:29;;;;;;;;;;;11.60;60.20;;;;;;5086408;27;87963;-47
2022/05/05 05:49:55;;;;;;;;;;;11.60;60.30;;;;;;5087387;27;87447;-47
2022/05/05 05:52:21;;;;;;;;;;;11.60;60.30;;;;;;5087843;27;87122;-47
2022/05/05 05:54:46;;;;;;;;;;;11.60;60.20;;;;;;5087903;27;86848;-47
2022/05/05 05:57:12;;;;;;;;;;;11.60;60.30;;;;;;5087354;27;87658;-48
2022/05/05 05:59:38;;;;;;;;;;;11.70;60.20;;;;;;5087342;27;87217;-48
2022/05/05 06:04:48;;;;;;;;;;;11.70;60.30;;;;;;5084503;27;86363;-49
2022/05/05 06:07:13;;;;;;;;;;;11.70;60.30;;;;;;5089512;27;87063;-48
2022/05/05 06:09:39;;;;;;;;;;;11.70;60.20;;;;;;5086991;27;88653;-47
2022/05/05 06:12:05;;;;;;;;;;;11.70;60.20;;;;;;5085985;27;87789;-47
2022/05/05 06:14:32;;;;;;;;;;;11.70;60.20;;;;;;5087111;27;88949;-48
2022/05/05 06:16:58;;;;;;;;;;;11.70;60.40;;;;;;5086928;27;89044;-50
2022/05/05 06:19:23;;;;;;;;;;;11.70;60.30;;;;;;5087153;27;86883;-48
2022/05/05 06:21:50;;;;;;;;;;;11.70;60.30;;;;;;5087591;27;87022;-47
2022/05/05 06:24:16;;;;;;;;;;;11.70;60.40;;;;;;5086762;27;88583;-49
2022/05/05 06:26:41;;;;;;;;;;;11.70;60.40;;;;;;5087423;27;86928;-49
2022/05/05 06:29:07;;;;;;;;;;;11.80;60.30;;;;;;5090565;27;85983;-48
2022/05/05 06:31:34;;;;;;;;;;;11.80;60.50;;;;;;5087044;27;86958;-51
2022/05/05 06:33:59;;;;;;;;;;;11.80;60.40;;;;;;5087192;27;87887;-47
2022/05/05 06:36:26;;;;;;;;;;;11.80;60.40;;;;;;5085875;27;89657;-48
2022/05/05 06:38:52;;;;;;;;;;;11.80;60.50;;;;;;5086976;27;87278;-47
2022/05/05 06:41:18;;;;;;;;;;;11.80;60.50;;;;;;5087004;27;87939;-47
2022/05/05 06:43:44;;;;;;;;;;;11.80;60.60;;;;;;5086498;27;87694;-47
2022/05/05 06:46:09;;;;;;;;;;;11.80;60.50;;;;;;5086869;27;86926;-49
2022/05/05 06:48:35;;;;;;;;;;;11.80;60.50;;;;;;5086829;27;88081;-47
2022/05/05 06:51:01;;;;;;;;;;;11.90;60.60;;;;;;5089326;27;88407;-47
2022/05/05 06:53:26;;;;;;;;;;;11.90;60.60;;;;;;5087163;27;87007;-47
2022/05/05 06:55:55;;;;;;;;;;;11.90;60.70;;;;;;5086285;27;87623;-47
2022/05/05 06:58:22;;;;;;;;;;;11.90;60.50;;;;;;5086820;27;87519;-47
2022/05/05 07:03:33;;;;;;;;;;;11.90;60.50;;;;;;5086328;27;86825;-47
2022/05/05 07:05:58;;;;;;;;;;;11.90;60.50;;;;;;5086871;27;86845;-47
2022/05/05 07:08:24;;;;;;;;;;;11.90;60.50;;;;;;5086532;27;88175;-47
2022/05/05 07:10:52;;;;;;;;;;;11.90;60.60;;;;;;5086104;27;88667;-47
2022/05/05 07:13:18;;;;;;;;;;;11.90;60.50;;;;;;5090938;27;87280;-47
2022/05/05 07:15:44;;;;;;;;;;;11.90;60.60;;;;;;5089594;27;88516;-47
2022/05/05 07:18:09;;;;;;;;;;;11.90;60.70;;;;;;5090716;27;86377;-47
2022/05/05 07:20:35;;;;;;;;;;;11.90;60.70;;;;;;5090268;27;86834;-47
2022/05/05 07:23:01;;;;;;;;;;;11.90;60.70;;;;;;5089501;27;88526;-48
2022/05/05 07:25:27;;;;;;;;;;;11.90;60.60;;;;;;5089550;27;87868;-47
2022/05/05 07:27:53;;;;;;;;;;;11.90;60.50;;;;;;5090166;27;87760;-47
2022/05/05 07:30:19;;;;;;;;;;;11.90;60.50;;;;;;5089347;27;88579;-47
2022/05/05 07:32:45;;;;;;;;;;;11.90;60.50;;;;;;5089699;27;87315;-47
2022/05/05 07:35:12;;;;;;;;;;;11.90;60.60;;;;;;5092261;27;87796;-47
2022/05/05 07:37:39;;;;;;;;;;;11.90;60.60;;;;;;5089946;27;86900;-47
2022/05/05 07:40:05;;;;;;;;;;;11.90;60.70;;;;;;5089714;27;88019;-47
2022/05/05 07:42:32;;;;;;;;;;;11.90;60.60;;;;;;5089731;27;87801;-47
2022/05/05 07:44:58;;;;;;;;;;;12.00;60.80;;;;;;5089579;27;86899;-47
2022/05/05 07:47:25;;;;;;;;;;;12.00;60.70;;;;;;5089826;27;86786;-47
2022/05/05 07:49:51;;;;;;;;;;;11.90;60.70;;;;;;5088375;27;88595;-47
2022/05/05 07:52:16;;;;;;;;;;;11.90;60.70;;;;;;5089362;27;86912;-47
2022/05/05 07:54:44;;;;;;;;;;;12.00;60.70;;;;;;5091920;27;88038;-47
2022/05/05 07:57:12;;;;;;;;;;;12.00;60.70;;;;;;5089449;27;86863;-47
2022/05/05 07:59:38;;;;;;;;;;;12.00;60.60;;;;;;5089342;27;87962;-47
2022/05/05 08:02:04;;;;;;;;;;;12.00;60.50;;;;;;5088897;27;87439;-48
2022/05/05 08:04:31;;;;;;;;;;;12.00;60.50;;;;;;5089114;27;86918;-48
2022/05/05 08:06:57;;;;;;;;;;;12.00;60.50;;;;;;5089737;27;88044;-47
2022/05/05 08:09:24;;;;;;;;;;;12.00;60.50;;;;;;5089103;27;86894;-47
2022/05/05 08:11:50;;;;;;;;;;;12.00;60.60;;;;;;5089143;27;86910;-47
2022/05/05 08:14:15;;;;;;;;;;;12.00;60.50;;;;;;5088747;27;87851;-47
2022/05/05 08:16:41;;;;;;;;;;;12.00;60.70;;;;;;5091989;27;87517;-47
2022/05/05 08:19:07;;;;;;;;;;;12.00;60.70;;;;;;5089073;27;88086;-49
2022/05/05 08:21:33;;;;;;;;;;;12.00;60.70;;;;;;5088846;27;87581;-47
2022/05/05 08:29:27;;;;;;;;;;;12.10;60.60;;;;;;5088841;27;86918;-47
2022/05/05 08:31:53;;;;;;;;;;;12.10;60.70;;;;;;5089252;27;86267;-47
2022/05/05 08:34:19;;;;;;;;;;;12.10;60.50;;;;;;5088945;27;87086;-47
2022/05/05 08:36:45;;;;;;;;;;;12.10;60.50;;;;;;5088273;27;88818;-47
2022/05/05 08:39:10;;;;;;;;;;;12.10;61.50;;;;;;5090953;27;87896;-47
2022/05/05 08:41:38;;;;;;;;;;;12.10;61.80;;;;;;5088413;27;86932;-47
2022/05/05 08:44:04;;;;;;;;;;;12.10;60.70;;;;;;5088541;27;86826;-47
2022/05/05 08:46:31;;;;;;;;;;;12.20;60.80;;;;;;5088920;27;87228;-47
2022/05/05 08:48:59;;;;;;;;;;;12.20;61.00;;;;;;5088251;27;87873;-47
2022/05/05 08:51:26;;;;;;;;;;;12.20;60.90;;;;;;5088441;27;86940;-47
2022/05/05 08:53:53;;;;;;;;;;;12.20;60.60;;;;;;5088876;27;86883;-47
2022/05/05 08:56:19;;;;;;;;;;;12.20;60.70;;;;;;5088606;27;86997;-47
2022/05/05 08:58:45;;;;;;;;;;;12.20;60.60;;;;;;5088428;27;86930;-47
2022/05/05 09:01:10;;;;;;;;;;;12.20;60.70;;;;;;5090988;27;88031;-47
2022/05/05 09:03:37;;;;;;;;;;;12.20;60.80;;;;;;5087624;27;88040;-47
2022/05/05 09:06:04;;;;;;;;;;;12.30;60.90;;;;;;5088303;27;88997;-47
2022/05/05 09:08:33;;;;;;;;;;;12.30;61.10;;;;;;5087828;27;88476;-47
2022/05/05 09:11:01;;;;;;;;;;;12.30;60.90;;;;;;5087707;27;86807;-47
2022/05/05 09:13:31;;;;;;;;;;;12.30;60.80;;;;;;5087559;27;88188;-47
2022/05/05 09:15:56;;;;;;;;;;;12.40;60.80;;;;;;5086929;27;87593;-47
2022/05/05 09:18:30;;;;;;;;;;;12.30;60.80;;;;;;5087854;27;87045;-47
2022/05/05 09:20:56;;;;;;;;;;;12.40;60.80;;;;;;5088093;27;86989;-47
2022/05/05 09:23:34;;;;;;;;;;;12.40;61.50;;;;;;5090064;27;87854;-47
2022/05/05 09:26:01;;;;;;;;;;;12.40;61.90;;;;;;5087758;27;87106;-47
2022/05/05 09:28:28;;;;;;;;;;;12.40;61.60;;;;;;5086801;27;89385;-47
2022/05/05 09:30:55;;;;;;;;;;;12.40;61.10;;;;;;5087854;27;86896;-47
2022/05/05 09:33:33;;;;;;;;;;;12.50;61.70;;;;;;5087924;27;87779;-47
2022/05/05 09:36:00;;;;;;;;;;;12.50;62.10;;;;;;5087273;27;89073;-47
2022/05/05 09:38:46;;;;;;;;;;;12.50;62.50;;;;;;5087755;27;86844;-47
2022/05/05 09:41:11;;;;;;;;;;;12.50;62.60;;;;;;5087430;27;88010;-47
2022/05/05 09:43:37;;;;;;;;;;;12.60;62.30;;;;;;5087212;27;88442;-47
2022/05/05 09:46:23;;;;;;;;;;;12.60;62.30;;;;;;5090935;27;86168;-47
2022/05/05 09:48:52;;;;;;;;;;;12.60;62.40;;;;;;5086782;27;88601;-47
2022/05/05 09:51:18;;;;;;;;;;;12.60;62.40;;;;;;5086898;27;86986;-48
2022/05/05 09:59:17;;;;;;;;;;;12.70;62.10;;;;;;5087715;27;86832;-47
2022/05/05 10:01:45;;;;;;;;;;;12.70;62.40;;;;;;5086915;27;87112;-47
2022/05/05 10:04:11;;;;;;;;;;;12.70;62.20;;;;;;5087018;27;88536;-47
2022/05/05 10:06:43;;;;;;;;;;;12.80;61.90;;;;;;5090378;27;86882;-47
2022/05/05 10:09:13;;;;;;;;;;;12.80;61.70;;;;;;5086971;27;88404;-47
2022/05/05 10:11:40;;;;;;;;;;;12.80;62.00;;;;;;5087742;27;86129;-47
2022/05/05 10:14:07;;;;;;;;;;;12.90;62.30;;;;;;5087503;27;87508;-47
2022/05/05 10:16:33;;;;;;;;;;;12.90;61.60;;;;;;5086965;27;88258;-47
2022/05/05 10:18:59;;;;;;;;;;;12.90;61.60;;;;;;5086640;27;87754;-47
2022/05/05 10:21:43;;;;;;;;;;;12.90;61.50;;;;;;5087473;27;86869;-48
2022/05/05 10:24:11;;;;;;;;;;;12.90;61.50;;;;;;5086777;27;87374;-47
2022/05/05 10:26:38;;;;;;;;;;;13.00;61.40;;;;;;5087092;27;87034;-48
2022/05/05 10:29:03;;;;;;;;;;;13.00;61.30;;;;;;5089679;27;87093;-47
2022/05/05 10:31:37;;;;;;;;;;;13.00;61.20;;;;;;5087017;27;87106;-47
2022/05/05 10:34:08;;;;;;;;;;;13.10;61.20;;;;;;5087000;27;87937;-47
2022/05/05 10:36:35;;;;;;;;;;;13.10;61.00;;;;;;5087045;27;87734;-47
2022/05/05 10:39:17;;;;;;;;;;;13.10;60.80;;;;;;5087072;27;87112;-47
2022/05/05 10:41:43;;;;;;;;;;;13.10;61.00;;;;;;5086953;27;87595;-47
2022/05/05 10:44:15;;;;;;;;;;;13.10;61.20;;;;;;5085780;27;89434;-47
2022/05/05 10:46:53;;;;;;;;;;;13.10;61.00;;;;;;5086920;27;86818;-47
2022/05/05 10:49:37;;;;;;;;;;;13.20;61.10;;;;;;5089964;27;87989;-47
2022/05/05 10:52:09;;;;;;;;;;;13.20;60.70;;;;;;5092263;27;87543;-48
2022/05/05 10:54:35;;;;;;;;;;;13.20;61.00;;;;;;5090786;27;86877;-47
2022/05/05 10:57:20;;;;;;;;;;;13.30;60.70;;;;;;5089970;27;87757;-47
2022/05/05 11:00:04;;;;;;;;;;;13.30;60.70;;;;;;5090311;27;86823;-47
2022/05/05 11:02:30;;;;;;;;;;;13.30;60.70;;;;;;5090329;27;87907;-47
2022/05/05 11:05:17;;;;;;;;;;;13.30;60.60;;;;;;5089773;27;88537;-47
2022/05/05 11:07:43;;;;;;;;;;;13.40;60.50;;;;;;5072812;27;87076;-48
2022/05/05 11:10:29;;;;;;;;;;;13.40;60.50;;;;;;5089538;27;87890;-48
2022/05/05 11:12:55;;;;;;;;;;;13.40;60.10;;;;;;5089580;27;88527;-48
2022/05/05 11:23:56;;;;;;;;;;;13.60;60.20;;;;;;5086989;27;86869;-48
2022/05/05 11:26:22;;;;;;;;;;;13.60;60.80;;;;;;5089522;27;88431;-48
2022/05/05 11:28:48;;;;;;;;;;;13.60;60.00;;;;;;5090380;27;86097;-48
2022/05/05 11:31:28;;;;;;;;;;;13.60;60.30;;;;;;5089813;27;86926;-47
2022/05/05 11:33:58;;;;;;;;;;;13.70;60.20;;;;;;5089411;27;88313;-47
2022/05/05 11:36:34;;;;;;;;;;;13.70;60.10;;;;;;5089089;27;88178;-47
2022/05/05 11:39:01;;;;;;;;;;;13.80;60.30;;;;;;5092181;27;88772;-47
2022/05/05 11:41:28;;;;;;;;;;;13.70;60.10;;;;;;5089758;27;86954;-47
2022/05/05 11:46:38;;;;;;;;;;;13.80;60.00;;;;;;5089563;27;86796;-48
2022/05/05 11:49:04;;;;;;;;;;;13.80;59.90;;;;;;5089617;27;86875;-48
2022/05/05 11:51:31;;;;;;;;;;;13.90;59.90;;;;;;5089478;27;87132;-48
2022/05/05 11:54:05;;;;;;;;;;;13.90;59.80;;;;;;5089656;27;87945;-47
2022/05/05 11:56:31;;;;;;;;;;;13.90;59.70;;;;;;5089411;27;86827;-48
2022/05/05 12:02:04;;;;;;;;;;;13.90;60.00;;;;;;5086118;27;87745;-48
2022/05/05 12:04:30;;;;;;;;;;;14.00;60.10;;;;;;5089310;27;87984;-48
2022/05/05 12:06:57;;;;;;;;;;;14.00;59.30;;;;;;5088963;27;87744;-48
2022/05/05 12:09:23;;;;;;;;;;;14.10;59.70;;;;;;5089237;27;86784;-48
2022/05/05 12:11:48;;;;;;;;;;;14.10;59.80;;;;;;5089467;27;87177;-48
2022/05/05 12:14:14;;;;;;;;;;;14.20;59.40;;;;;;5088754;27;88597;-48
2022/05/05 12:16:43;;;;;;;;;;;14.20;59.50;;;;;;5089147;27;86828;-48
2022/05/05 12:19:13;;;;;;;;;;;14.20;59.60;;;;;;5089609;27;87346;-48
2022/05/05 12:21:54;;;;;;;;;;;14.20;59.20;;;;;;5091551;27;87923;-48
2022/05/05 12:24:22;;;;;;;;;;;14.20;59.40;;;;;;5088438;27;86831;-48
2022/05/05 12:26:48;;;;;;;;;;;14.30;58.80;;;;;;5087840;27;89385;-48
2022/05/05 12:29:15;;;;;;;;;;;14.40;58.10;;;;;;5088905;27;86914;-48
2022/05/05 12:31:57;;;;;;;;;;;14.30;59.00;;;;;;5089193;27;86985;-48
2022/05/05 12:34:25;;;;;;;;;;;14.30;59.10;;;;;;5088497;27;88539;-48
2022/05/05 12:37:06;;;;;;;;;;;14.40;59.30;;;;;;5088919;27;86896;-47
2022/05/05 12:39:32;;;;;;;;;;;14.50;59.10;;;;;;5088799;27;87675;-48
2022/05/05 12:41:59;;;;;;;;;;;14.50;59.10;;;;;;5088710;27;87481;-48
2022/05/05 12:44:33;;;;;;;;;;;14.50;58.90;;;;;;5092069;27;86275;-48
2022/05/05 12:47:05;;;;;;;;;;;14.50;59.20;;;;;;5087679;27;87685;-48
2022/05/05 12:49:37;;;;;;;;;;;14.60;59.20;;;;;;5088968;27;86830;-48
2022/05/05 12:52:03;;;;;;;;;;;14.60;59.20;;;;;;5088180;27;87791;-48
2022/05/05 12:59:57;;;;;;;;;;;14.70;58.50;;;;;;5085466;27;86817;-48
2022/05/05 13:02:24;;;;;;;;;;;14.70;58.70;;;;;;5087834;27;88609;-48
2022/05/05 13:04:49;;;;;;;;;;;14.70;58.40;;;;;;5088296;27;87060;-48
2022/05/05 13:07:15;;;;;;;;;;;14.70;58.20;;;;;;5090895;27;87851;-48
2022/05/05 13:09:41;;;;;;;;;;;14.80;58.20;;;;;;5088866;27;86087;-48
2022/05/05 13:12:07;;;;;;;;;;;14.80;58.40;;;;;;5087659;27;87370;-48
2022/05/05 13:14:32;;;;;;;;;;;14.90;58.60;;;;;;5087751;27;89268;-48
2022/05/05 13:16:59;;;;;;;;;;;14.90;58.00;;;;;;5087527;27;88062;-48
2022/05/05 13:19:25;;;;;;;;;;;14.90;57.80;;;;;;5088070;27;88833;-48
2022/05/05 13:21:51;;;;;;;;;;;14.90;58.10;;;;;;5087624;27;88598;-48
2022/05/05 13:24:17;;;;;;;;;;;15.00;57.70;;;;;;5088122;27;86842;-48
2022/05/05 13:26:44;;;;;;;;;;;15.00;57.80;;;;;;5088261;27;86923;-48
2022/05/05 13:29:10;;;;;;;;;;;15.10;57.60;;;;;;5090809;27;87436;-48
2022/05/05 13:31:36;;;;;;;;;;;15.10;57.80;;;;;;5087901;27;87059;-48
2022/05/05 13:34:02;;;;;;;;;;;15.10;58.00;;;;;;5087896;27;87855;-48
2022/05/05 13:36:27;;;;;;;;;;;15.10;58.00;;;;;;5088202;27;86831;-48
2022/05/05 13:38:54;;;;;;;;;;;15.10;57.80;;;;;;5087792;27;86930;-48
2022/05/05 13:44:23;;;;;;;;;;;15.20;57.70;;;;;;5085344;27;86629;-50
2022/05/05 13:49:52;;;;;;;;;;;15.30;57.60;;;;;;5084865;27;86806;-48
2022/05/05 13:55:22;;;;;;;;;;;15.30;57.70;;;;;;5084668;27;86995;-48
2022/05/05 14:00:51;;;;;;;;;;;15.40;57.80;;;;;;5085623;27;86041;-48
2022/05/05 14:06:28;;;;;;;;;;;15.50;57.50;;;;;;5084966;27;86715;-48
2022/05/05 14:12:12;;;;;;;;;;;15.50;57.50;;;;;;5084379;27;87014;-48
2022/05/05 14:17:41;;;;;;;;;;;15.50;57.30;;;;;;5084529;27;87151;-48
2022/05/05 14:23:09;;;;;;;;;;;15.50;57.70;;;;;;5083789;27;86825;-48
2022/05/05 14:28:38;;;;;;;;;;;15.50;57.60;;;;;;5085232;27;86058;-48
2022/05/05 14:34:06;;;;;;;;;;;15.60;57.50;;;;;;5084372;27;87050;-48
2022/05/05 14:39:35;;;;;;;;;;;15.60;57.60;;;;;;5087145;27;87285;-48
2022/05/05 14:45:04;;;;;;;;;;;15.60;57.60;;;;;;5084556;27;86645;-49
2022/05/05 14:50:33;;;;;;;;;;;15.70;57.60;;;;;;5084356;27;86814;-48
2022/05/05 14:56:03;;;;;;;;;;;15.70;57.50;;;;;;5084550;27;86278;-48
2022/05/05 15:01:31;;;;;;;;;;;15.70;57.70;;;;;;5084037;27;86706;-48
2022/05/05 15:07:00;;;;;;;;;;;15.70;57.70;;;;;;5084188;27;87307;-48
2022/05/05 15:12:28;;;;;;;;;;;15.70;57.60;;;;;;5084160;27;86725;-48
2022/05/05 15:17:57;;;;;;;;;;;15.80;57.80;;;;;;5083799;27;86707;-48
2022/05/05 15:23:25;;;;;;;;;;;15.90;57.50;;;;;;5084522;27;86071;-48
2022/05/05 15:28:54;;;;;;;;;;;16.00;57.80;;;;;;5086973;27;86678;-48
2022/05/05 15:34:22;;;;;;;;;;;16.00;57.60;;;;;;5085481;27;86705;-49
2022/05/05 15:39:51;;;;;;;;;;;16.10;57.60;;;;;;5086958;27;87010;-48
2022/05/05 15:45:19;;;;;;;;;;;16.20;57.40;;;;;;5087253;27;86766;-48
2022/05/05 15:50:48;;;;;;;;;;;16.30;57.30;;;;;;5087579;27;86011;-48
2022/05/05 15:56:17;;;;;;;;;;;16.30;56.90;;;;;;5087021;27;86851;-48
2022/05/05 16:01:45;;;;;;;;;;;16.30;57.50;;;;;;5086535;27;86766;-48
2022/05/05 16:07:14;;;;;;;;;;;16.40;56.90;;;;;;5086987;27;86662;-48
2022/05/05 16:12:43;;;;;;;;;;;16.40;56.90;;;;;;5086795;27;86739;-48
2022/05/05 16:18:13;;;;;;;;;;;16.50;57.00;;;;;;5089691;27;86059;-48
2022/05/05 16:23:41;;;;;;;;;;;16.60;56.90;;;;;;5086376;27;87034;-48
2022/05/05 16:34:57;;;;;;;;;;;16.60;56.90;;;;;;5086473;27;86718;-48
2022/05/05 16:40:27;;;;;;;;;;;16.50;56.90;;;;;;5088883;27;86869;-48
2022/05/05 16:45:56;;;;;;;;;;;16.60;57.10;;;;;;5085541;27;86289;-48
2022/05/05 16:51:24;;;;;;;;;;;16.50;57.30;;;;;;5086249;27;86734;-48
2022/05/05 16:56:53;;;;;;;;;;;16.60;57.30;;;;;;5086147;27;86749;-48